Time;durP1;ratioP1;P1;durP2;ratioP2;P2;SDS_P1;SDS_P2;PMS_P1;PMS_P2;Temp;Humidity;BMP_temperature;BMP_pressure;BME280_temperature;BME280_humidity;BME280_pressure;Samples;Min_cycle;Max_cycle;Signal;HPM_P1;HPM_P2
2024/03/13 00:01:54;;;;;;;14.60;10.15;;;;;;;;;;5078520;28;20058;-75
2024/03/13 00:04:21;;;;;;;16.83;9.95;;;;;;;;;;5066037;28;20043;-74
2024/03/13 00:06:47;;;;;;;14.07;9.88;;;;;;;;;;5089984;28;20130;-73
2024/03/13 00:09:16;;;;;;;17.05;11.00;;;;;;;;;;5066162;28;20055;-75
2024/03/13 00:11:43;;;;;;;16.77;11.13;;;;;;;;;;5082500;28;20048;-75
2024/03/13 00:14:09;;;;;;;19.77;11.65;;;;;;;;;;5091209;28;20174;-75
2024/03/13 00:16:36;;;;;;;15.82;11.05;;;;;;;;;;5085330;28;20159;-75
2024/03/13 00:19:03;;;;;;;16.65;11.20;;;;;;;;;;5103048;28;20039;-75
2024/03/13 00:21:35;;;;;;;15.68;10.75;;;;;;;;;;5066588;28;20044;-75
2024/03/13 00:24:02;;;;;;;16.38;10.98;;;;;;;;;;5064883;28;20055;-75
2024/03/13 00:26:29;;;;;;;17.05;11.30;;;;;;;;;;5078536;28;20079;-76
2024/03/13 00:28:55;;;;;;;18.02;11.10;;;;;;;;;;5099983;28;20060;-75
2024/03/13 00:31:22;;;;;;;17.88;11.57;;;;;;;;;;5092664;28;20109;-76
2024/03/13 00:33:48;;;;;;;16.73;10.70;;;;;;;;;;5076828;28;20102;-76
2024/03/13 00:36:15;;;;;;;15.50;10.23;;;;;;;;;;5092602;28;20233;-75
2024/03/13 00:38:42;;;;;;;15.10;10.23;;;;;;;;;;5078170;28;20585;-76
2024/03/13 00:41:09;;;;;;;13.82;10.05;;;;;;;;;;5089841;28;20387;-75
2024/03/13 00:43:36;;;;;;;12.52;8.50;;;;;;;;;;5089391;28;20044;-76
2024/03/13 00:46:02;;;;;;;13.90;9.88;;;;;;;;;;5089108;28;20040;-75
2024/03/13 00:48:31;;;;;;;13.40;8.98;;;;;;;;;;5086959;28;20056;-75
2024/03/13 00:51:00;;;;;;;14.30;9.60;;;;;;;;;;5087422;28;20086;-75
2024/03/13 00:53:27;;;;;;;12.90;8.77;;;;;;;;;;5083531;28;20052;-75
2024/03/13 00:55:55;;;;;;;13.38;9.10;;;;;;;;;;5096736;28;20043;-76
2024/03/13 00:58:22;;;;;;;12.07;8.88;;;;;;;;;;5081492;28;20048;-76
2024/03/13 01:00:49;;;;;;;12.32;8.52;;;;;;;;;;5098416;28;20069;-75
2024/03/13 01:03:19;;;;;;;11.75;8.57;;;;;;;;;;5082898;28;20101;-75
2024/03/13 01:05:45;;;;;;;11.38;8.27;;;;;;;;;;5079255;28;20171;-75
2024/03/13 01:08:11;;;;;;;11.90;8.63;;;;;;;;;;5089157;28;20498;-75
2024/03/13 01:10:39;;;;;;;12.45;8.05;;;;;;;;;;5083722;28;20056;-75
2024/03/13 01:13:05;;;;;;;11.90;9.23;;;;;;;;;;5084083;28;20532;-76
2024/03/13 01:15:31;;;;;;;10.40;7.20;;;;;;;;;;5079207;28;20044;-75
2024/03/13 01:17:58;;;;;;;14.73;9.18;;;;;;;;;;5087973;28;20105;-75
2024/03/13 01:20:25;;;;;;;13.00;9.48;;;;;;;;;;5097570;28;20050;-75
2024/03/13 01:22:55;;;;;;;12.13;8.48;;;;;;;;;;5084692;28;20062;-75
2024/03/13 01:25:24;;;;;;;12.02;8.35;;;;;;;;;;5095351;28;20049;-75
2024/03/13 01:27:51;;;;;;;11.52;8.05;;;;;;;;;;5081765;28;20357;-75
2024/03/13 01:30:17;;;;;;;11.38;7.95;;;;;;;;;;5089773;28;20040;-75
2024/03/13 01:32:44;;;;;;;11.77;8.00;;;;;;;;;;5079105;28;20047;-75
2024/03/13 01:35:11;;;;;;;12.65;8.93;;;;;;;;;;5094300;28;20101;-75
2024/03/13 01:37:56;;;;;;;12.10;7.95;;;;;;;;;;5079734;28;20047;-76
2024/03/13 01:55:13;;;;;;;13.00;8.73;;;;;;;;;;5073531;28;20101;-75
2024/03/13 02:03:21;;;;;;;12.10;9.05;;;;;;;;;;5100048;28;20047;-75
2024/03/13 02:05:49;;;;;;;13.15;8.63;;;;;;;;;;5085740;28;20040;-76
2024/03/13 02:08:17;;;;;;;12.82;9.00;;;;;;;;;;5075191;28;20086;-75
2024/03/13 02:10:44;;;;;;;12.50;8.80;;;;;;;;;;5074123;28;20118;-75
2024/03/13 02:13:11;;;;;;;13.25;9.57;;;;;;;;;;5084181;28;20047;-75
2024/03/13 02:15:39;;;;;;;11.82;8.75;;;;;;;;;;5073085;28;20051;-76
2024/03/13 02:18:23;;;;;;;12.73;8.98;;;;;;;;;;5085620;28;20143;-76
2024/03/13 02:20:52;;;;;;;13.38;8.73;;;;;;;;;;5073082;28;20048;-76
2024/03/13 02:23:19;;;;;;;11.75;8.45;;;;;;;;;;5089489;28;20047;-76
2024/03/13 02:25:45;;;;;;;12.82;9.05;;;;;;;;;;5087733;28;20727;-75
2024/03/13 02:28:14;;;;;;;11.90;8.38;;;;;;;;;;5090529;28;20079;-75
2024/03/13 02:30:42;;;;;;;12.70;9.18;;;;;;;;;;5052874;28;20044;-76
2024/03/13 02:33:11;;;;;;;13.80;8.77;;;;;;;;;;5071024;28;20464;-76
2024/03/13 02:35:38;;;;;;;12.77;8.68;;;;;;;;;;5080660;28;20846;-76
2024/03/13 02:38:07;;;;;;;13.38;9.85;;;;;;;;;;5088201;28;20079;-76
2024/03/13 02:40:33;;;;;;;13.07;8.45;;;;;;;;;;5088878;28;20469;-75
2024/03/13 02:43:00;;;;;;;17.75;9.18;;;;;;;;;;5084657;28;20091;-75
2024/03/13 02:45:27;;;;;;;19.45;9.75;;;;;;;;;;5060081;28;20129;-75
2024/03/13 02:47:53;;;;;;;15.32;8.63;;;;;;;;;;5085461;28;20067;-76
2024/03/13 02:50:20;;;;;;;15.38;9.38;;;;;;;;;;5087402;28;20071;-76
2024/03/13 02:52:46;;;;;;;14.10;9.07;;;;;;;;;;5083694;28;20055;-76
2024/03/13 02:55:13;;;;;;;15.98;9.45;;;;;;;;;;5088273;28;20048;-75
2024/03/13 02:57:40;;;;;;;14.43;9.20;;;;;;;;;;5073297;28;20053;-76
2024/03/13 03:00:07;;;;;;;17.05;9.48;;;;;;;;;;5088710;28;20055;-75
2024/03/13 03:02:34;;;;;;;18.00;9.27;;;;;;;;;;5105612;28;20059;-76
2024/03/13 03:05:03;;;;;;;19.27;9.38;;;;;;;;;;5078358;28;20044;-75
2024/03/13 03:07:31;;;;;;;25.00;10.18;;;;;;;;;;5078607;28;20056;-74
2024/03/13 03:09:58;;;;;;;24.45;10.20;;;;;;;;;;5091224;28;20051;-74
2024/03/13 03:12:25;;;;;;;18.83;9.60;;;;;;;;;;5090038;28;20047;-76
2024/03/13 03:14:53;;;;;;;23.50;10.82;;;;;;;;;;5077032;28;20644;-75
2024/03/13 03:17:21;;;;;;;27.05;11.10;;;;;;;;;;5097569;28;20195;-75
2024/03/13 03:19:50;;;;;;;35.13;10.88;;;;;;;;;;5089039;28;20116;-75
2024/03/13 03:22:20;;;;;;;31.10;11.27;;;;;;;;;;5061652;28;20036;-75
2024/03/13 03:24:48;;;;;;;34.13;12.68;;;;;;;;;;5069803;28;20113;-75
2024/03/13 03:27:15;;;;;;;24.75;11.43;;;;;;;;;;5082321;28;20059;-75
2024/03/13 03:29:41;;;;;;;22.15;11.73;;;;;;;;;;5062261;28;20044;-75
2024/03/13 03:32:08;;;;;;;28.85;12.98;;;;;;;;;;5069858;28;20075;-75
2024/03/13 03:34:35;;;;;;;22.40;12.13;;;;;;;;;;5067407;28;20055;-75
2024/03/13 03:37:01;;;;;;;25.98;12.90;;;;;;;;;;5087435;28;20052;-75
2024/03/13 03:39:29;;;;;;;27.20;14.10;;;;;;;;;;5078984;28;20052;-75
2024/03/13 03:41:57;;;;;;;24.48;13.57;;;;;;;;;;5087482;28;20130;-75
2024/03/13 03:44:23;;;;;;;27.13;13.95;;;;;;;;;;5106983;28;20059;-75
2024/03/13 03:46:50;;;;;;;26.17;13.60;;;;;;;;;;5094327;28;20040;-74
2024/03/13 03:49:16;;;;;;;24.52;13.77;;;;;;;;;;5070654;28;20450;-75
2024/03/13 03:51:43;;;;;;;26.73;13.13;;;;;;;;;;5063878;28;20044;-75
2024/03/13 03:54:10;;;;;;;22.83;12.52;;;;;;;;;;5075295;28;20265;-75
2024/03/13 03:56:38;;;;;;;23.58;13.60;;;;;;;;;;5087349;28;20885;-74
2024/03/13 03:59:09;;;;;;;25.85;12.68;;;;;;;;;;5089647;28;20094;-75
2024/03/13 04:01:36;;;;;;;23.10;12.93;;;;;;;;;;5085574;28;20131;-74
2024/03/13 04:04:05;;;;;;;25.15;13.55;;;;;;;;;;5068753;28;20043;-74
2024/03/13 04:06:32;;;;;;;25.73;14.05;;;;;;;;;;5069003;28;20044;-74
2024/03/13 04:08:58;;;;;;;22.52;14.10;;;;;;;;;;5064416;28;20770;-73
2024/03/13 04:11:25;;;;;;;27.20;13.88;;;;;;;;;;5083803;28;20517;-74
2024/03/13 04:13:51;;;;;;;25.27;13.48;;;;;;;;;;5102429;28;20692;-74
2024/03/13 04:16:17;;;;;;;22.38;13.57;;;;;;;;;;5082745;28;20079;-73
2024/03/13 04:18:44;;;;;;;22.50;12.40;;;;;;;;;;5105252;28;20107;-74
2024/03/13 04:21:12;;;;;;;22.25;12.85;;;;;;;;;;5096500;28;20051;-74
2024/03/13 04:23:39;;;;;;;19.57;11.57;;;;;;;;;;5090851;28;20431;-74
2024/03/13 04:26:05;;;;;;;23.42;12.68;;;;;;;;;;5097585;28;20039;-74
2024/03/13 04:28:32;;;;;;;23.35;12.48;;;;;;;;;;5086352;28;20083;-74
2024/03/13 04:31:01;;;;;;;21.92;11.95;;;;;;;;;;5083803;28;20054;-74
2024/03/13 04:33:28;;;;;;;24.10;13.02;;;;;;;;;;5085522;28;20487;-74
2024/03/13 04:35:57;;;;;;;20.15;11.77;;;;;;;;;;5082579;28;20059;-74
2024/03/13 04:38:24;;;;;;;23.52;12.70;;;;;;;;;;5057496;28;20056;-74
2024/03/13 04:40:50;;;;;;;24.75;12.70;;;;;;;;;;5075326;28;20056;-74
2024/03/13 04:43:17;;;;;;;20.45;12.45;;;;;;;;;;5066139;28;20052;-74
2024/03/13 04:45:43;;;;;;;20.67;11.60;;;;;;;;;;5090449;28;20050;-74
2024/03/13 04:48:10;;;;;;;19.90;11.65;;;;;;;;;;5075019;28;20045;-74
2024/03/13 04:50:38;;;;;;;22.70;11.52;;;;;;;;;;5042216;28;20096;-75
2024/03/13 04:53:04;;;;;;;22.70;12.47;;;;;;;;;;5061899;28;20048;-75
2024/03/13 04:55:31;;;;;;;22.42;12.63;;;;;;;;;;5058481;28;20049;-75
2024/03/13 04:57:58;;;;;;;23.58;12.35;;;;;;;;;;5064894;28;20048;-74
2024/03/13 05:00:25;;;;;;;22.83;12.77;;;;;;;;;;5095239;28;20133;-74
2024/03/13 05:02:52;;;;;;;27.15;12.35;;;;;;;;;;5072507;28;20052;-73
2024/03/13 05:05:18;;;;;;;21.98;11.13;;;;;;;;;;5071279;28;20101;-74
2024/03/13 05:07:45;;;;;;;20.70;11.43;;;;;;;;;;5088115;28;20072;-74
2024/03/13 05:10:16;;;;;;;19.20;10.93;;;;;;;;;;5079227;28;20132;-75
2024/03/13 05:12:43;;;;;;;18.27;9.93;;;;;;;;;;5062661;28;20131;-74
2024/03/13 05:15:10;;;;;;;21.60;10.25;;;;;;;;;;5078635;28;20079;-74
2024/03/13 05:17:38;;;;;;;19.30;9.95;;;;;;;;;;5066880;28;20056;-76
2024/03/13 05:20:11;;;;;;;17.60;8.60;;;;;;;;;;5079187;28;20068;-76
2024/03/13 05:22:37;;;;;;;15.43;7.72;;;;;;;;;;5048878;28;20071;-76
2024/03/13 05:25:19;;;;;;;15.40;8.30;;;;;;;;;;5049097;28;20051;-75
2024/03/13 05:27:46;;;;;;;14.43;8.55;;;;;;;;;;5084408;28;20579;-77
2024/03/13 05:30:13;;;;;;;14.43;8.27;;;;;;;;;;5080626;28;20486;-77
2024/03/13 05:32:39;;;;;;;16.88;8.02;;;;;;;;;;5096228;28;20166;-77
2024/03/13 05:35:06;;;;;;;16.30;8.00;;;;;;;;;;5103784;28;20039;-77
2024/03/13 05:37:34;;;;;;;15.65;7.93;;;;;;;;;;5081232;28;20444;-76
2024/03/13 05:40:11;;;;;;;15.57;8.00;;;;;;;;;;5098803;28;20096;-77
2024/03/13 05:42:41;;;;;;;15.05;8.60;;;;;;;;;;5102309;28;20503;-75
2024/03/13 05:45:08;;;;;;;17.50;8.40;;;;;;;;;;5097532;28;20062;-76
2024/03/13 05:47:35;;;;;;;14.02;8.10;;;;;;;;;;5104397;28;20492;-77
2024/03/13 05:50:02;;;;;;;15.10;8.23;;;;;;;;;;5087433;28;20051;-76
2024/03/13 05:52:28;;;;;;;15.40;8.07;;;;;;;;;;5089954;28;20079;-77
2024/03/13 05:54:55;;;;;;;14.88;8.02;;;;;;;;;;5083449;28;20181;-77
2024/03/13 05:57:24;;;;;;;13.70;8.27;;;;;;;;;;5083188;28;20056;-77
2024/03/13 05:59:51;;;;;;;18.75;7.82;;;;;;;;;;5083663;28;20377;-76
2024/03/13 06:02:17;;;;;;;13.30;8.43;;;;;;;;;;5067141;28;20052;-77
2024/03/13 06:04:45;;;;;;;15.18;7.88;;;;;;;;;;5085583;28;20420;-77
2024/03/13 06:07:12;;;;;;;15.35;8.07;;;;;;;;;;5096460;28;20548;-77
2024/03/13 06:09:38;;;;;;;13.32;7.28;;;;;;;;;;5091062;28;20052;-76
2024/03/13 06:12:06;;;;;;;14.43;7.38;;;;;;;;;;5066469;28;20119;-76
2024/03/13 06:14:37;;;;;;;14.82;8.40;;;;;;;;;;5109048;28;20136;-76
2024/03/13 06:17:04;;;;;;;13.55;7.85;;;;;;;;;;5089229;28;20101;-75
2024/03/13 06:19:30;;;;;;;16.88;8.25;;;;;;;;;;5073548;28;20055;-76
2024/03/13 06:21:57;;;;;;;14.38;7.95;;;;;;;;;;5085402;28;20087;-76
2024/03/13 06:24:30;;;;;;;13.23;7.57;;;;;;;;;;5081065;28;20077;-76
2024/03/13 06:27:02;;;;;;;12.65;7.18;;;;;;;;;;5089644;28;20542;-74
2024/03/13 06:32:14;;;;;;;11.70;7.20;;;;;;;;;;5091767;28;20039;-75
2024/03/13 06:34:41;;;;;;;12.45;6.93;;;;;;;;;;5065144;28;20105;-74
2024/03/13 06:37:07;;;;;;;11.00;7.28;;;;;;;;;;5073581;28;20048;-74
2024/03/13 06:39:35;;;;;;;12.95;8.05;;;;;;;;;;5072156;28;20064;-75
2024/03/13 06:42:02;;;;;;;12.43;7.63;;;;;;;;;;5067255;28;20048;-74
2024/03/13 06:44:28;;;;;;;14.23;7.50;;;;;;;;;;5083030;28;20056;-74
2024/03/13 06:46:54;;;;;;;10.90;7.53;;;;;;;;;;5085260;28;20694;-74
2024/03/13 06:49:21;;;;;;;12.48;7.65;;;;;;;;;;5067923;28;20134;-73
2024/03/13 06:51:47;;;;;;;11.85;7.30;;;;;;;;;;5087618;28;20145;-74
2024/03/13 06:54:14;;;;;;;10.98;7.15;;;;;;;;;;5079835;28;20052;-75
2024/03/13 06:56:40;;;;;;;11.30;6.45;;;;;;;;;;5084366;28;20048;-74
2024/03/13 06:59:07;;;;;;;10.45;6.55;;;;;;;;;;5067235;28;20051;-74
2024/03/13 07:01:36;;;;;;;11.40;7.45;;;;;;;;;;5082581;28;20113;-75
2024/03/13 07:04:03;;;;;;;11.18;6.75;;;;;;;;;;5085534;28;20043;-74
2024/03/13 07:06:29;;;;;;;11.30;7.03;;;;;;;;;;5097565;28;20153;-74
2024/03/13 07:08:56;;;;;;;10.00;6.88;;;;;;;;;;5083634;28;20043;-73
2024/03/13 07:11:22;;;;;;;12.60;7.30;;;;;;;;;;5089754;28;20552;-74
2024/03/13 07:13:50;;;;;;;11.95;7.90;;;;;;;;;;5085664;28;20080;-75
2024/03/13 07:16:16;;;;;;;12.48;7.30;;;;;;;;;;5055551;28;20075;-74
2024/03/13 07:18:43;;;;;;;11.73;7.35;;;;;;;;;;5079295;28;20039;-74
2024/03/13 07:21:09;;;;;;;14.80;8.65;;;;;;;;;;5087792;28;20484;-74
2024/03/13 07:23:37;;;;;;;13.63;8.05;;;;;;;;;;5088181;28;20044;-74
2024/03/13 07:26:07;;;;;;;13.75;8.32;;;;;;;;;;5076497;28;20087;-74
2024/03/13 07:28:33;;;;;;;14.30;8.43;;;;;;;;;;5080332;28;20111;-75
2024/03/13 07:31:00;;;;;;;13.75;8.88;;;;;;;;;;5083192;28;20082;-73
2024/03/13 07:33:28;;;;;;;15.63;9.10;;;;;;;;;;5066591;28;21360;-74
2024/03/13 07:35:55;;;;;;;15.15;8.98;;;;;;;;;;5095213;28;20458;-74
2024/03/13 07:38:21;;;;;;;13.57;8.23;;;;;;;;;;5100008;28;20116;-74
2024/03/13 07:40:48;;;;;;;13.95;8.27;;;;;;;;;;5082617;28;20101;-74
2024/03/13 07:43:14;;;;;;;15.13;8.75;;;;;;;;;;5086855;28;20776;-73
2024/03/13 07:45:41;;;;;;;15.40;8.73;;;;;;;;;;5097796;28;20047;-74
2024/03/13 07:48:08;;;;;;;18.40;9.10;;;;;;;;;;5078279;28;20052;-74
2024/03/13 07:50:35;;;;;;;14.55;8.57;;;;;;;;;;5093297;28;20135;-74
2024/03/13 07:53:04;;;;;;;15.27;9.13;;;;;;;;;;5070780;28;20037;-73
2024/03/13 07:55:31;;;;;;;12.90;7.97;;;;;;;;;;5079758;28;20494;-72
2024/03/13 07:57:58;;;;;;;16.13;8.93;;;;;;;;;;5087038;28;20067;-73
2024/03/13 08:00:27;;;;;;;16.00;9.52;;;;;;;;;;5093611;28;20044;-73
2024/03/13 08:02:57;;;;;;;17.63;9.32;;;;;;;;;;5068591;28;20063;-74
2024/03/13 08:05:23;;;;;;;16.80;10.35;;;;;;;;;;5099406;28;20059;-74
2024/03/13 08:07:50;;;;;;;14.98;9.48;;;;;;;;;;5101367;28;20604;-73
2024/03/13 08:10:34;;;;;;;15.38;9.48;;;;;;;;;;5083739;28;21269;-74
2024/03/13 08:13:18;;;;;;;18.42;9.70;;;;;;;;;;5091598;28;20101;-73
2024/03/13 08:16:02;;;;;;;18.80;10.48;;;;;;;;;;5077784;28;20528;-73
2024/03/13 08:18:46;;;;;;;19.10;10.82;;;;;;;;;;5085931;28;20608;-73
2024/03/13 08:21:30;;;;;;;19.90;10.15;;;;;;;;;;5049731;28;20401;-73
2024/03/13 08:24:14;;;;;;;19.23;10.75;;;;;;;;;;5055098;28;20161;-75
2024/03/13 08:26:58;;;;;;;17.27;9.95;;;;;;;;;;5087819;28;20054;-73
2024/03/13 08:29:42;;;;;;;17.95;11.27;;;;;;;;;;5073691;28;20038;-73
2024/03/13 08:32:26;;;;;;;19.30;10.30;;;;;;;;;;5080692;28;20038;-73
2024/03/13 08:35:10;;;;;;;18.13;10.55;;;;;;;;;;5104447;28;20047;-74
2024/03/13 08:37:54;;;;;;;17.42;10.23;;;;;;;;;;5092752;28;20042;-75
2024/03/13 08:40:38;;;;;;;18.52;10.50;;;;;;;;;;5090024;28;20046;-72
2024/03/13 08:43:22;;;;;;;19.52;10.13;;;;;;;;;;5079796;28;20039;-75
2024/03/13 08:46:06;;;;;;;17.42;10.23;;;;;;;;;;5095112;28;20039;-76
2024/03/13 08:48:55;;;;;;;21.65;11.23;;;;;;;;;;5074505;28;20046;-76
2024/03/13 08:51:40;;;;;;;18.23;9.90;;;;;;;;;;5081910;28;20541;-76
2024/03/13 08:54:24;;;;;;;17.52;9.90;;;;;;;;;;5098522;28;20135;-76
2024/03/13 08:57:11;;;;;;;21.67;10.68;;;;;;;;;;5076019;28;20043;-75
2024/03/13 08:59:55;;;;;;;19.23;9.55;;;;;;;;;;5063962;28;20051;-76
2024/03/13 09:02:39;;;;;;;16.08;8.63;;;;;;;;;;5065625;28;20074;-76
2024/03/13 09:05:22;;;;;;;15.82;8.35;;;;;;;;;;5057320;28;20119;-76
2024/03/13 09:08:07;;;;;;;16.17;8.45;;;;;;;;;;5079623;28;20035;-76
2024/03/13 09:10:33;;;;;;;16.92;8.20;;;;;;;;;;5083475;28;20058;-75
2024/03/13 09:13:02;;;;;;;11.32;6.15;;;;;;;;;;5067775;28;20525;-76
2024/03/13 09:15:30;;;;;;;13.82;6.93;;;;;;;;;;5093117;28;20744;-77
2024/03/13 09:17:56;;;;;;;13.55;7.05;;;;;;;;;;5066938;28;20036;-76
2024/03/13 09:20:25;;;;;;;12.82;7.32;;;;;;;;;;5070607;28;20484;-76
2024/03/13 09:22:54;;;;;;;14.27;7.13;;;;;;;;;;5079844;28;20127;-77
2024/03/13 09:25:20;;;;;;;16.15;7.05;;;;;;;;;;5069528;28;20106;-76
2024/03/13 09:27:47;;;;;;;13.82;7.35;;;;;;;;;;5085004;28;20059;-77
2024/03/13 09:30:13;;;;;;;15.23;6.90;;;;;;;;;;5076782;28;20044;-75
2024/03/13 09:32:40;;;;;;;9.85;6.10;;;;;;;;;;5060993;28;20109;-76
2024/03/13 09:35:13;;;;;;;11.38;6.78;;;;;;;;;;5074789;28;20043;-75
2024/03/13 09:37:41;;;;;;;13.00;6.38;;;;;;;;;;5081528;28;20116;-76
2024/03/13 09:40:16;;;;;;;10.43;5.80;;;;;;;;;;5083582;28;20055;-75
2024/03/13 09:42:49;;;;;;;11.95;6.18;;;;;;;;;;5065320;28;20438;-76
2024/03/13 09:45:20;;;;;;;10.75;6.18;;;;;;;;;;5075320;28;20597;-76
2024/03/13 09:47:49;;;;;;;10.40;5.88;;;;;;;;;;5079593;28;20048;-77
2024/03/13 09:50:16;;;;;;;10.48;6.13;;;;;;;;;;5075940;28;20049;-76
2024/03/13 09:52:43;;;;;;;11.88;6.57;;;;;;;;;;5088898;28;20462;-75
2024/03/13 09:55:13;;;;;;;10.90;6.50;;;;;;;;;;5076619;28;20056;-75
2024/03/13 09:57:40;;;;;;;9.68;5.90;;;;;;;;;;5090299;28;20102;-75
2024/03/13 10:00:19;;;;;;;14.07;6.80;;;;;;;;;;5090040;28;20435;-76
2024/03/13 10:02:49;;;;;;;9.15;6.13;;;;;;;;;;5083127;28;20071;-76
2024/03/13 10:05:18;;;;;;;15.45;7.00;;;;;;;;;;5079040;28;20131;-75
2024/03/13 10:07:49;;;;;;;15.30;8.05;;;;;;;;;;5078596;28;20032;-76
2024/03/13 10:10:25;;;;;;;15.05;9.48;;;;;;;;;;5089802;28;20472;-76
2024/03/13 10:12:55;;;;;;;19.13;9.00;;;;;;;;;;5062879;28;20564;-75
2024/03/13 10:15:22;;;;;;;20.42;11.43;;;;;;;;;;5088320;28;20055;-76
2024/03/13 10:18:01;;;;;;;23.35;11.95;;;;;;;;;;5065078;28;20154;-76
2024/03/13 10:20:32;;;;;;;25.42;12.27;;;;;;;;;;5082439;28;20067;-76
2024/03/13 10:22:59;;;;;;;24.75;12.68;;;;;;;;;;5072907;28;20392;-75
2024/03/13 10:25:29;;;;;;;28.83;13.25;;;;;;;;;;5077306;28;20476;-76
2024/03/13 10:27:56;;;;;;;32.80;14.85;;;;;;;;;;5101793;28;20188;-76
2024/03/13 10:30:24;;;;;;;29.42;15.90;;;;;;;;;;5096272;28;20431;-77
2024/03/13 10:32:51;;;;;;;34.17;16.20;;;;;;;;;;5088721;28;20076;-76
2024/03/13 10:35:18;;;;;;;29.63;14.82;;;;;;;;;;5079564;28;20059;-75
2024/03/13 10:37:44;;;;;;;34.22;16.65;;;;;;;;;;5097436;28;20446;-75
2024/03/13 10:40:14;;;;;;;42.08;17.35;;;;;;;;;;5093337;28;20048;-75
2024/03/13 10:42:42;;;;;;;39.05;16.52;;;;;;;;;;5085798;28;20126;-76
2024/03/13 10:45:11;;;;;;;34.65;16.67;;;;;;;;;;5083594;28;20437;-75
2024/03/13 10:47:38;;;;;;;32.97;17.55;;;;;;;;;;5095877;28;20079;-75
2024/03/13 10:50:05;;;;;;;39.83;18.45;;;;;;;;;;5088067;28;20178;-76
2024/03/13 10:52:31;;;;;;;31.25;16.05;;;;;;;;;;5096823;28;20516;-76
2024/03/13 10:54:58;;;;;;;29.75;16.52;;;;;;;;;;5106654;28;20052;-76
2024/03/13 10:57:25;;;;;;;31.50;15.57;;;;;;;;;;5073889;28;20079;-75
2024/03/13 10:59:52;;;;;;;30.70;15.15;;;;;;;;;;5079086;28;20040;-75
2024/03/13 11:02:18;;;;;;;28.05;13.13;;;;;;;;;;5074733;28;20050;-75
2024/03/13 11:04:45;;;;;;;29.52;13.63;;;;;;;;;;5072990;28;20055;-76
2024/03/13 11:07:12;;;;;;;30.27;14.48;;;;;;;;;;5100568;28;20047;-73
2024/03/13 11:09:40;;;;;;;31.73;15.60;;;;;;;;;;5086068;28;20159;-75
2024/03/13 11:12:18;;;;;;;31.85;13.95;;;;;;;;;;5088341;28;20052;-73
2024/03/13 11:14:51;;;;;;;28.02;14.30;;;;;;;;;;5096952;28;20059;-74
2024/03/13 11:17:20;;;;;;;25.45;14.23;;;;;;;;;;5082515;28;20134;-73
2024/03/13 11:19:55;;;;;;;23.75;13.65;;;;;;;;;;5103720;28;20043;-73
2024/03/13 11:22:24;;;;;;;24.83;12.57;;;;;;;;;;5081628;28;20054;-73
2024/03/13 11:24:51;;;;;;;25.45;12.60;;;;;;;;;;5067753;28;20048;-73
2024/03/13 11:27:19;;;;;;;26.40;13.32;;;;;;;;;;5103588;28;20048;-73
2024/03/13 11:29:48;;;;;;;26.10;12.85;;;;;;;;;;5097202;28;20061;-73
2024/03/13 11:32:15;;;;;;;23.17;13.05;;;;;;;;;;5073295;28;20043;-74
2024/03/13 11:34:42;;;;;;;19.58;12.18;;;;;;;;;;5066124;28;20131;-73
2024/03/13 11:37:11;;;;;;;29.13;14.98;;;;;;;;;;5077609;28;20078;-73
2024/03/13 11:39:42;;;;;;;25.25;14.00;;;;;;;;;;5061997;28;20103;-74
2024/03/13 11:42:12;;;;;;;24.48;13.70;;;;;;;;;;5068316;28;20139;-73
2024/03/13 11:44:45;;;;;;;22.42;13.75;;;;;;;;;;5079134;28;20040;-75
2024/03/13 11:47:15;;;;;;;27.42;13.90;;;;;;;;;;5092390;28;20040;-74
2024/03/13 11:49:41;;;;;;;24.75;14.05;;;;;;;;;;5072619;28;20049;-73
2024/03/13 11:52:07;;;;;;;26.25;13.95;;;;;;;;;;5084551;28;20465;-74
2024/03/13 11:54:39;;;;;;;25.73;14.68;;;;;;;;;;5086789;28;20830;-73
2024/03/13 11:57:06;;;;;;;26.35;13.98;;;;;;;;;;5081131;28;20047;-73
2024/03/13 11:59:52;;;;;;;27.67;14.30;;;;;;;;;;5072022;28;20048;-73
2024/03/13 12:02:27;;;;;;;26.15;15.50;;;;;;;;;;5074722;28;20629;-73
2024/03/13 12:05:04;;;;;;;26.85;15.65;;;;;;;;;;5085694;28;20051;-74
2024/03/13 12:07:40;;;;;;;27.55;14.43;;;;;;;;;;5072735;28;20079;-74
2024/03/13 12:10:17;;;;;;;29.92;15.65;;;;;;;;;;5078244;28;20127;-74
2024/03/13 12:12:45;;;;;;;28.67;16.52;;;;;;;;;;5071867;28;20076;-75
2024/03/13 12:15:17;;;;;;;27.80;16.50;;;;;;;;;;5071065;28;20053;-72
2024/03/13 12:17:49;;;;;;;28.88;16.95;;;;;;;;;;5063915;28;20051;-76
2024/03/13 12:20:18;;;;;;;29.63;18.05;;;;;;;;;;5068492;28;20574;-75
2024/03/13 12:22:46;;;;;;;31.42;16.83;;;;;;;;;;5066303;28;20431;-76
2024/03/13 12:25:12;;;;;;;30.02;16.70;;;;;;;;;;5050480;28;20123;-77
2024/03/13 12:27:46;;;;;;;27.98;17.13;;;;;;;;;;5048155;28;20080;-76
2024/03/13 12:30:14;;;;;;;29.38;16.55;;;;;;;;;;5066494;28;20039;-76
2024/03/13 12:32:40;;;;;;;32.00;17.53;;;;;;;;;;5092476;28;20130;-76
2024/03/13 12:35:10;;;;;;;31.40;17.80;;;;;;;;;;5102730;28;20055;-75
2024/03/13 12:37:37;;;;;;;26.45;16.38;;;;;;;;;;5083391;28;20055;-76
2024/03/13 12:40:08;;;;;;;31.10;17.98;;;;;;;;;;5106231;28;20100;-76
2024/03/13 12:42:37;;;;;;;29.77;17.45;;;;;;;;;;5055159;28;20777;-76
2024/03/13 12:45:04;;;;;;;28.08;17.35;;;;;;;;;;5076773;28;20050;-76
2024/03/13 12:47:33;;;;;;;32.00;18.77;;;;;;;;;;5099832;28;20063;-76
2024/03/13 12:50:00;;;;;;;33.25;18.63;;;;;;;;;;5092645;28;20077;-76
2024/03/13 12:52:28;;;;;;;29.88;17.23;;;;;;;;;;5074911;28;20048;-76
2024/03/13 12:54:55;;;;;;;32.40;16.10;;;;;;;;;;5084441;28;20043;-76
2024/03/13 12:57:21;;;;;;;32.95;17.35;;;;;;;;;;5083559;28;20052;-76
2024/03/13 12:59:54;;;;;;;32.25;16.70;;;;;;;;;;5082415;28;20130;-76
2024/03/13 13:02:22;;;;;;;28.35;16.23;;;;;;;;;;5066549;28;20075;-77
2024/03/13 13:04:49;;;;;;;28.88;16.70;;;;;;;;;;5067700;28;20101;-77
2024/03/13 13:07:15;;;;;;;27.88;15.65;;;;;;;;;;5079038;28;20054;-76
2024/03/13 13:09:42;;;;;;;28.35;15.60;;;;;;;;;;5077188;28;20087;-76
2024/03/13 13:12:12;;;;;;;31.08;16.80;;;;;;;;;;5077910;28;20059;-76
2024/03/13 13:14:40;;;;;;;25.02;14.70;;;;;;;;;;5092580;28;20056;-76
2024/03/13 13:17:06;;;;;;;24.40;14.98;;;;;;;;;;5093470;28;20784;-76
2024/03/13 13:19:33;;;;;;;30.17;14.38;;;;;;;;;;5079302;28;20148;-75
2024/03/13 13:21:59;;;;;;;24.40;13.40;;;;;;;;;;5085432;28;20055;-76
2024/03/13 13:24:26;;;;;;;25.05;12.85;;;;;;;;;;5080011;28;20657;-76
2024/03/13 13:26:52;;;;;;;21.38;11.23;;;;;;;;;;5067591;28;20044;-73
2024/03/13 13:29:19;;;;;;;16.52;10.68;;;;;;;;;;5089499;28;20055;-74
2024/03/13 13:31:45;;;;;;;18.25;10.93;;;;;;;;;;5083883;28;20135;-74
2024/03/13 13:34:12;;;;;;;21.38;9.95;;;;;;;;;;5078427;28;20086;-75
2024/03/13 13:36:38;;;;;;;17.20;9.90;;;;;;;;;;5052128;28;20051;-75
2024/03/13 13:39:05;;;;;;;18.63;10.38;;;;;;;;;;5086984;28;20715;-74
2024/03/13 13:41:32;;;;;;;18.95;10.93;;;;;;;;;;5063987;28;20052;-73
2024/03/13 13:43:59;;;;;;;17.73;10.00;;;;;;;;;;5078551;28;20043;-73
2024/03/13 13:46:25;;;;;;;19.00;9.75;;;;;;;;;;5081733;28;20039;-73
2024/03/13 13:48:52;;;;;;;13.55;8.38;;;;;;;;;;5086623;28;20776;-74
2024/03/13 13:51:19;;;;;;;16.77;9.60;;;;;;;;;;5098186;28;20578;-74
2024/03/13 13:53:45;;;;;;;14.35;9.13;;;;;;;;;;5074003;28;20051;-73
2024/03/13 13:56:12;;;;;;;19.38;10.35;;;;;;;;;;5070504;28;20043;-73
2024/03/13 13:58:39;;;;;;;14.40;9.13;;;;;;;;;;5070755;28;20178;-74
2024/03/13 14:01:05;;;;;;;19.38;10.57;;;;;;;;;;5102435;28;20047;-73
2024/03/13 14:03:32;;;;;;;20.35;11.43;;;;;;;;;;5077196;28;20125;-74
2024/03/13 14:06:00;;;;;;;15.95;11.18;;;;;;;;;;5091358;28;20044;-74
2024/03/13 14:08:27;;;;;;;;;;;;;;;;;;5092081;28;20044;-74
2024/03/13 14:10:56;;;;;;;21.88;11.23;;;;;;;;;;5093611;28;19920;-74
2024/03/13 14:13:27;;;;;;;17.73;11.30;;;;;;;;;;5086861;28;20340;-74
2024/03/13 14:15:53;;;;;;;20.40;10.60;;;;;;;;;;5084770;28;20051;-73
2024/03/13 14:18:20;;;;;;;23.63;12.95;;;;;;;;;;5089542;28;20043;-74
2024/03/13 14:20:50;;;;;;;21.30;11.43;;;;;;;;;;5079215;28;20091;-72
2024/03/13 14:23:17;;;;;;;19.00;11.25;;;;;;;;;;5084931;28;20042;-75
2024/03/13 14:25:43;;;;;;;20.85;11.90;;;;;;;;;;5087273;28;20047;-74
2024/03/13 14:28:10;;;;;;;15.65;10.45;;;;;;;;;;5091067;28;20097;-74
2024/03/13 14:30:37;;;;;;;15.95;11.10;;;;;;;;;;5079050;28;20052;-63
2024/03/13 14:33:04;;;;;;;15.43;10.95;;;;;;;;;;5098521;28;20487;-65
2024/03/13 14:35:31;;;;;;;19.85;10.48;;;;;;;;;;5073161;28;20437;-60
2024/03/13 14:37:58;;;;;;;19.67;9.88;;;;;;;;;;5072228;28;20134;-61
2024/03/13 14:40:24;;;;;;;18.33;10.52;;;;;;;;;;5085570;28;20051;-61
2024/03/13 14:42:51;;;;;;;18.70;9.73;;;;;;;;;;5096246;28;20093;-61
2024/03/13 14:45:18;;;;;;;14.38;9.18;;;;;;;;;;5093507;28;20043;-61
2024/03/13 14:47:45;;;;;;;15.68;8.52;;;;;;;;;;5084055;28;20393;-60
2024/03/13 14:50:16;;;;;;;13.77;6.97;;;;;;;;;;5060581;28;20148;-62
2024/03/13 14:52:45;;;;;;;13.05;7.25;;;;;;;;;;5025702;28;20548;-61
2024/03/13 14:55:27;;;;;;;13.18;7.10;;;;;;;;;;5043363;28;20063;-61
2024/03/13 14:57:53;;;;;;;11.68;6.28;;;;;;;;;;5050085;28;20049;-62